createdAt,value
2023-01-13T00:01:29.497Z,12.30
2023-01-13T00:03:57.436Z,10.93
2023-01-13T00:06:29.412Z,11.52
2023-01-13T00:08:58.100Z,10.63
2023-01-13T00:11:26.747Z,10.95
2023-01-13T00:13:54.762Z,11.02
2023-01-13T00:16:22.493Z,11.32
2023-01-13T00:18:51.461Z,10.13
2023-01-13T00:21:21.069Z,10.25
2023-01-13T00:23:50.453Z,9.68
2023-01-13T00:26:21.908Z,10.57
2023-01-13T00:28:49.547Z,11.20
2023-01-13T00:31:21.601Z,10.52
2023-01-13T00:33:51.749Z,9.88
2023-01-13T00:36:20.775Z,9.95
2023-01-13T00:38:48.667Z,9.27
2023-01-13T00:41:22.447Z,9.45
2023-01-13T00:43:49.965Z,9.52
2023-01-13T00:46:22.161Z,9.27
2023-01-13T00:48:50.019Z,9.18
2023-01-13T00:51:21.949Z,9.90
2023-01-13T00:56:22.137Z,8.45
2023-01-13T00:59:02.137Z,9.05
2023-01-13T01:01:31.992Z,9.43
2023-01-13T01:03:59.746Z,8.98
2023-01-13T01:06:28.304Z,10.48
2023-01-13T01:08:56.355Z,8.88
2023-01-13T01:11:26.753Z,10.02
2023-01-13T01:13:56.018Z,8.60
2023-01-13T01:16:26.397Z,9.23
2023-01-13T01:18:56.051Z,8.93
2023-01-13T01:21:25.587Z,8.35
2023-01-13T01:23:53.076Z,8.90
2023-01-13T01:26:25.855Z,9.10
2023-01-13T01:28:54.105Z,8.40
2023-01-13T01:31:21.390Z,8.32
2023-01-13T01:33:49.560Z,8.20
2023-01-13T01:36:18.581Z,9.13
2023-01-13T01:38:49.919Z,9.80
2023-01-13T01:41:23.342Z,8.20
2023-01-13T01:44:21.512Z,8.65
2023-01-13T01:46:48.689Z,9.27
2023-01-13T01:49:25.672Z,7.47
2023-01-13T01:52:07.107Z,8.80
2023-01-13T01:54:52.577Z,9.73
2023-01-13T01:57:30.670Z,9.82
2023-01-13T02:00:01.368Z,9.88
2023-01-13T02:02:32.538Z,9.57
2023-01-13T02:05:02.790Z,9.60
2023-01-13T02:07:33.389Z,9.63
2023-01-13T02:10:04.334Z,9.88
2023-01-13T02:12:32.809Z,8.95
2023-01-13T02:15:05.516Z,9.93
2023-01-13T02:17:48.119Z,9.55
2023-01-13T02:20:26.213Z,9.43
2023-01-13T02:23:38.462Z,9.13
2023-01-13T02:26:36.578Z,7.85
2023-01-13T02:30:07.578Z,8.52
2023-01-13T02:32:51.020Z,8.70
2023-01-13T02:35:34.268Z,9.20
2023-01-13T02:38:03.142Z,9.27
2023-01-13T02:40:39.644Z,7.88
2023-01-13T02:43:47.770Z,8.88
2023-01-13T02:46:25.693Z,8.00
2023-01-13T02:48:56.190Z,8.68
2023-01-13T02:51:27.378Z,9.50
2023-01-13T02:54:08.885Z,9.25
2023-01-13T02:56:46.255Z,8.68
2023-01-13T02:59:14.531Z,9.52
2023-01-13T03:01:43.533Z,9.40
2023-01-13T03:04:51.116Z,8.57
2023-01-13T03:07:52.618Z,7.78
2023-01-13T03:10:33.738Z,8.13
2023-01-13T03:13:19.614Z,8.45
2023-01-13T03:15:55.541Z,9.13
2023-01-13T03:18:37.921Z,9.18
2023-01-13T03:21:09.703Z,10.73
2023-01-13T03:23:48.782Z,7.75
2023-01-13T03:26:29.031Z,8.88
2023-01-13T03:29:29.762Z,8.77
2023-01-13T03:32:14.447Z,9.13
2023-01-13T03:35:13.834Z,8.35
2023-01-13T03:37:51.203Z,9.20
2023-01-13T03:40:24.920Z,9.95
2023-01-13T03:43:16.424Z,11.43
2023-01-13T03:45:50.248Z,9.50
2023-01-13T03:48:22.998Z,9.85
2023-01-13T03:51:10.639Z,8.82
2023-01-13T03:53:55.034Z,8.98
2023-01-13T03:58:57.935Z,8.82
2023-01-13T04:01:32.463Z,7.93
2023-01-13T04:04:33.997Z,9.88
2023-01-13T04:07:12.052Z,9.25
2023-01-13T04:12:28.060Z,8.90
2023-01-13T04:14:56.660Z,8.43
2023-01-13T04:17:24.799Z,9.35
2023-01-13T04:19:54.696Z,9.23
2023-01-13T04:22:24.988Z,9.15
2023-01-13T04:24:52.361Z,8.77
2023-01-13T04:27:22.766Z,9.55
2023-01-13T04:29:55.509Z,8.57
2023-01-13T04:32:23.377Z,9.23
2023-01-13T04:34:50.722Z,8.63
2023-01-13T04:37:18.421Z,9.27
2023-01-13T04:39:46.744Z,8.48
2023-01-13T04:42:16.372Z,9.45
2023-01-13T04:44:43.484Z,9.45
2023-01-13T04:47:10.737Z,7.57
2023-01-13T04:49:43.144Z,9.57
2023-01-13T04:52:10.371Z,9.10
2023-01-13T04:54:37.578Z,9.25
2023-01-13T04:57:09.597Z,8.38
2023-01-13T04:59:44.418Z,9.80
2023-01-13T05:02:15.207Z,8.77
2023-01-13T05:04:43.241Z,9.90
2023-01-13T05:07:12.994Z,8.95
2023-01-13T05:09:40.554Z,9.38
2023-01-13T05:12:32.272Z,8.95
2023-01-13T05:15:21.299Z,9.27
2023-01-13T05:17:48.931Z,9.85
2023-01-13T05:20:18.701Z,10.55
2023-01-13T05:23:05.114Z,9.30
2023-01-13T05:25:34.028Z,10.90
2023-01-13T05:28:01.628Z,11.00
2023-01-13T05:30:32.009Z,9.45
2023-01-13T05:33:01.861Z,10.60
2023-01-13T05:35:30.199Z,11.15
2023-01-13T05:37:57.737Z,12.63
2023-01-13T05:40:43.945Z,10.32
2023-01-13T05:43:28.876Z,9.65
2023-01-13T05:46:02.943Z,10.43
2023-01-13T05:48:32.998Z,11.43
2023-01-13T05:51:01.365Z,11.32
2023-01-13T05:53:29.553Z,11.98
2023-01-13T05:55:56.852Z,10.35
2023-01-13T05:58:28.094Z,11.68
2023-01-13T06:01:01.384Z,12.63
2023-01-13T06:03:29.092Z,10.95
2023-01-13T06:05:59.698Z,10.68
2023-01-13T06:08:27.445Z,11.07
2023-01-13T06:10:55.383Z,10.80
2023-01-13T06:13:25.843Z,9.68
2023-01-13T06:16:02.802Z,11.57
2023-01-13T06:18:30.231Z,12.18
2023-01-13T06:21:00.382Z,12.18
2023-01-13T06:23:28.486Z,12.40
2023-01-13T06:25:55.779Z,12.32
2023-01-13T06:28:23.000Z,13.25
2023-01-13T06:30:54.672Z,11.45
2023-01-13T06:33:28.502Z,13.43
2023-01-13T06:36:09.495Z,12.48
2023-01-13T06:38:41.517Z,12.38
2023-01-13T06:41:10.553Z,11.88
2023-01-13T06:43:40.456Z,13.40
2023-01-13T06:46:11.229Z,10.93
2023-01-13T06:48:38.352Z,12.27
2023-01-13T06:51:09.463Z,12.95
2023-01-13T06:53:38.078Z,14.10
2023-01-13T06:56:07.399Z,13.95
2023-01-13T06:58:35.142Z,12.32
2023-01-13T07:01:05.971Z,12.05
2023-01-13T07:03:39.099Z,14.77
2023-01-13T07:06:22.928Z,13.95
2023-01-13T07:08:50.569Z,14.18
2023-01-13T07:11:18.151Z,14.00
2023-01-13T07:14:14.254Z,15.18
2023-01-13T07:20:07.349Z,13.35
2023-01-13T07:22:56.255Z,13.13
2023-01-13T07:25:34.643Z,13.48
2023-01-13T07:28:02.296Z,14.38
2023-01-13T07:30:32.957Z,12.13
2023-01-13T07:33:00.616Z,15.57
2023-01-13T07:35:38.328Z,16.52
2023-01-13T07:38:17.405Z,15.02
2023-01-13T07:40:50.255Z,15.23
2023-01-13T07:43:33.027Z,17.25
2023-01-13T07:46:25.267Z,14.65
2023-01-13T07:48:52.526Z,16.17
2023-01-13T07:51:42.411Z,14.93
2023-01-13T07:54:15.703Z,17.13
2023-01-13T07:56:43.236Z,16.15
2023-01-13T07:59:16.111Z,16.75
2023-01-13T08:01:47.756Z,15.00
2023-01-13T08:04:18.359Z,17.20
2023-01-13T08:06:48.648Z,15.90
2023-01-13T08:09:21.660Z,16.50
2023-01-13T08:12:11.400Z,16.55
2023-01-13T08:16:20.049Z,17.35
2023-01-13T08:21:39.902Z,17.00
2023-01-13T08:27:34.797Z,16.85
2023-01-13T08:30:16.935Z,17.15
2023-01-13T08:32:45.431Z,17.30
2023-01-13T08:35:20.291Z,16.67
2023-01-13T08:37:48.081Z,16.95
2023-01-13T08:40:19.632Z,14.48
2023-01-13T08:42:50.729Z,17.23
2023-01-13T08:45:20.999Z,16.25
2023-01-13T08:47:52.234Z,16.83
2023-01-13T08:50:22.345Z,17.20
2023-01-13T08:52:50.164Z,19.77
2023-01-13T08:55:20.398Z,19.70
2023-01-13T08:57:51.525Z,17.95
2023-01-13T09:00:20.951Z,20.13
2023-01-13T09:02:56.154Z,20.42
2023-01-13T09:05:27.458Z,18.08
2023-01-13T09:07:55.064Z,19.02
2023-01-13T09:10:36.189Z,17.80
2023-01-13T09:13:20.019Z,15.63
2023-01-13T09:15:52.637Z,18.58
2023-01-13T09:18:26.004Z,17.85
2023-01-13T09:23:44.377Z,16.92
2023-01-13T09:26:21.918Z,17.73
2023-01-13T09:29:45.334Z,16.33
2023-01-13T09:32:38.834Z,17.77
2023-01-13T09:35:11.110Z,15.18
2023-01-13T09:37:43.416Z,14.15
2023-01-13T09:40:23.017Z,15.88
2023-01-13T09:43:16.405Z,12.75
2023-01-13T09:46:06.085Z,11.35
2023-01-13T09:48:54.037Z,12.80
2023-01-13T09:52:32.933Z,12.77
2023-01-13T09:55:41.000Z,14.77
2023-01-13T09:58:47.505Z,14.40
2023-01-13T10:01:41.767Z,13.48
2023-01-13T10:08:14.944Z,13.38
2023-01-13T10:14:58.397Z,12.20
2023-01-13T10:18:32.009Z,11.98
2023-01-13T10:21:38.739Z,10.40
2023-01-13T10:24:40.424Z,10.85
2023-01-13T10:27:34.816Z,11.43
2023-01-13T10:30:34.013Z,12.07
2023-01-13T10:37:12.559Z,13.35
2023-01-13T10:39:52.212Z,10.80
2023-01-13T10:42:23.033Z,12.60
2023-01-13T10:45:03.047Z,10.95
2023-01-13T10:47:41.437Z,11.20
2023-01-13T10:50:33.971Z,10.93
2023-01-13T10:53:23.615Z,10.50
2023-01-13T10:56:25.295Z,12.45
2023-01-13T10:59:24.829Z,12.70
2023-01-13T11:02:25.816Z,11.60
2023-01-13T11:05:25.196Z,10.75
2023-01-13T11:08:48.417Z,11.45
2023-01-13T11:11:45.285Z,10.52
2023-01-13T11:14:44.171Z,11.75
2023-01-13T11:17:48.212Z,11.85
2023-01-13T11:23:39.530Z,12.18
2023-01-13T11:26:50.613Z,10.85
2023-01-13T11:29:31.293Z,11.50
2023-01-13T11:32:18.883Z,9.68
2023-01-13T11:35:23.448Z,9.88
2023-01-13T11:38:07.835Z,10.93
2023-01-13T11:43:35.653Z,11.40
2023-01-13T11:46:07.275Z,11.35
2023-01-13T11:48:45.792Z,11.73
2023-01-13T11:51:34.917Z,9.25
2023-01-13T11:55:07.407Z,9.73
2023-01-13T11:57:59.282Z,8.50
2023-01-13T12:00:31.285Z,10.05
2023-01-13T12:03:23.678Z,8.50
2023-01-13T12:06:39.836Z,11.07
2023-01-13T12:09:21.395Z,10.25
2023-01-13T12:12:24.783Z,11.40
2023-01-13T12:15:22.274Z,9.15
2023-01-13T12:18:04.165Z,12.85
2023-01-13T12:21:09.310Z,10.57
2023-01-13T12:23:50.208Z,11.00
2023-01-13T12:26:18.587Z,11.52
2023-01-13T12:28:56.024Z,12.75
2023-01-13T12:31:34.284Z,10.27
2023-01-13T12:34:19.287Z,10.25
2023-01-13T12:37:01.156Z,9.95
2023-01-13T12:39:37.153Z,9.82
2023-01-13T12:42:45.256Z,10.52
2023-01-13T12:45:18.522Z,9.68
2023-01-13T12:47:48.878Z,10.95
2023-01-13T12:50:29.217Z,10.15
2023-01-13T12:52:58.251Z,10.57
2023-01-13T12:55:49.477Z,10.85
2023-01-13T12:58:18.350Z,10.25
2023-01-13T13:01:02.047Z,10.25
2023-01-13T13:03:40.107Z,10.32
2023-01-13T13:06:23.861Z,10.02
2023-01-13T13:09:04.263Z,10.10
2023-01-13T13:11:58.380Z,10.52
2023-01-13T13:14:39.104Z,10.60
2023-01-13T13:17:30.031Z,10.32
2023-01-13T13:19:59.944Z,11.32
2023-01-13T13:22:30.114Z,10.75
2023-01-13T13:25:02.125Z,10.18
2023-01-13T13:27:45.485Z,9.52
2023-01-13T13:30:38.461Z,11.38
2023-01-13T13:33:24.275Z,9.10
2023-01-13T13:36:10.331Z,10.73
2023-01-13T13:39:21.042Z,11.52
2023-01-13T13:42:14.466Z,10.70
2023-01-13T13:45:07.553Z,10.05
2023-01-13T13:47:38.627Z,10.63
2023-01-13T13:50:30.187Z,9.45
2023-01-13T13:53:10.982Z,9.95
2023-01-13T13:55:44.176Z,10.55
2023-01-13T13:58:17.845Z,8.27
2023-01-13T14:00:52.817Z,9.20
2023-01-13T14:03:28.835Z,9.25
2023-01-13T14:06:04.589Z,10.13
2023-01-13T14:08:36.005Z,9.82
2023-01-13T14:11:32.326Z,9.35
2023-01-13T14:14:06.907Z,9.30
2023-01-13T14:16:36.400Z,9.07
2023-01-13T14:19:04.057Z,9.75
2023-01-13T14:21:32.033Z,8.60
2023-01-13T14:24:00.805Z,10.10
2023-01-13T14:26:31.305Z,16.40
2023-01-13T14:31:54.223Z,11.65
2023-01-13T14:34:31.418Z,10.38
2023-01-13T14:37:03.437Z,9.32
2023-01-13T14:39:35.583Z,9.85
2023-01-13T14:42:11.391Z,9.20
2023-01-13T14:44:51.401Z,7.90
2023-01-13T14:47:30.651Z,9.43
2023-01-13T14:50:07.110Z,9.50
2023-01-13T14:52:46.926Z,9.73
2023-01-13T14:55:41.059Z,8.48
2023-01-13T14:58:27.916Z,9.00
2023-01-13T15:01:26.438Z,9.05
2023-01-13T15:03:54.081Z,8.45
2023-01-13T15:06:24.638Z,9.05
2023-01-13T15:09:01.106Z,9.07
2023-01-13T15:11:29.145Z,8.25
2023-01-13T15:14:03.371Z,7.28
2023-01-13T15:16:34.649Z,10.13
2023-01-13T15:19:05.103Z,12.00
2023-01-13T15:21:32.397Z,10.02
2023-01-13T15:24:05.809Z,10.77
2023-01-13T15:26:35.210Z,11.48
2023-01-13T15:29:05.591Z,10.23
2023-01-13T15:31:33.550Z,8.73
2023-01-13T15:34:03.928Z,8.82
2023-01-13T15:36:40.422Z,9.82
2023-01-13T15:39:14.461Z,7.70
2023-01-13T15:42:00.696Z,7.57
2023-01-13T15:44:49.799Z,7.78
2023-01-13T15:47:25.264Z,8.30
2023-01-13T15:49:55.226Z,7.80
2023-01-13T15:52:27.110Z,8.65
2023-01-13T15:54:55.637Z,8.93
2023-01-13T15:57:31.399Z,8.25
2023-01-13T16:00:04.577Z,9.73
2023-01-13T16:02:33.532Z,8.80
2023-01-13T16:05:00.946Z,8.75
2023-01-13T16:07:36.145Z,8.35
2023-01-13T16:10:05.444Z,8.95
2023-01-13T16:12:37.708Z,10.02
2023-01-13T16:15:10.392Z,10.05
2023-01-13T16:17:37.546Z,9.60
2023-01-13T16:20:05.700Z,10.02
2023-01-13T16:22:35.988Z,10.07
2023-01-13T16:25:03.754Z,9.45
2023-01-13T16:27:35.095Z,9.30
2023-01-13T16:30:23.181Z,8.38
2023-01-13T16:32:53.530Z,9.43
2023-01-13T16:35:21.334Z,9.68
2023-01-13T16:37:49.617Z,9.13
2023-01-13T16:40:32.635Z,8.95
2023-01-13T16:43:06.942Z,9.35
2023-01-13T16:45:38.409Z,9.32
2023-01-13T16:48:06.552Z,10.93
2023-01-13T16:50:40.927Z,10.68
2023-01-13T16:53:12.038Z,8.70
2023-01-13T16:55:41.560Z,8.70
2023-01-13T16:58:21.647Z,9.65
2023-01-13T17:00:49.137Z,8.40
2023-01-13T17:03:17.446Z,8.30
2023-01-13T17:05:57.769Z,9.45
2023-01-13T17:08:25.208Z,9.45
2023-01-13T17:11:02.113Z,7.82
2023-01-13T17:13:29.664Z,9.20
2023-01-13T17:15:57.452Z,8.65
2023-01-13T17:18:24.594Z,9.82
2023-01-13T17:20:56.550Z,10.10
2023-01-13T17:23:24.723Z,9.20
2023-01-13T17:25:57.841Z,9.57
2023-01-13T17:28:33.461Z,8.65
2023-01-13T17:31:03.571Z,9.32
2023-01-13T17:33:37.593Z,8.73
2023-01-13T17:36:08.089Z,9.13
2023-01-13T17:38:44.310Z,10.23
2023-01-13T17:41:14.779Z,8.35
2023-01-13T17:43:42.051Z,10.30
2023-01-13T17:46:11.283Z,9.77
2023-01-13T17:48:41.575Z,9.63
2023-01-13T17:51:16.608Z,10.10
2023-01-13T17:53:48.483Z,9.40
2023-01-13T17:56:25.357Z,7.97
2023-01-13T17:58:53.341Z,8.60
2023-01-13T18:01:33.154Z,9.55
2023-01-13T18:04:01.246Z,9.02
2023-01-13T18:06:31.678Z,9.40
2023-01-13T18:09:05.330Z,8.88
2023-01-13T18:11:32.881Z,8.00
2023-01-13T18:14:06.098Z,9.63
2023-01-13T18:16:40.005Z,8.25
2023-01-13T18:19:25.622Z,8.15
2023-01-13T18:22:11.621Z,8.20
2023-01-13T18:25:06.846Z,9.05
2023-01-13T18:27:42.805Z,7.68
2023-01-13T18:30:11.233Z,8.57
2023-01-13T18:32:38.701Z,8.02
2023-01-13T18:35:10.754Z,7.68
2023-01-13T18:37:40.759Z,9.75
2023-01-13T18:40:12.771Z,8.00
2023-01-13T18:42:56.156Z,7.20
2023-01-13T18:45:29.103Z,7.75
2023-01-13T18:47:59.540Z,7.78
2023-01-13T18:50:34.825Z,9.40
2023-01-13T18:53:03.112Z,8.27
2023-01-13T18:55:33.623Z,8.10
2023-01-13T18:58:01.079Z,8.82
2023-01-13T19:00:30.638Z,10.13
2023-01-13T19:05:34.781Z,9.52
2023-01-13T19:08:03.572Z,10.00
2023-01-13T19:10:32.865Z,10.43
2023-01-13T19:13:08.599Z,9.93
2023-01-13T19:15:44.773Z,9.45
2023-01-13T19:18:14.376Z,9.90
2023-01-13T19:20:51.105Z,9.68
2023-01-13T19:23:19.513Z,8.93
2023-01-13T19:25:49.338Z,10.13
2023-01-13T19:28:16.827Z,10.32
2023-01-13T19:30:43.918Z,9.75
2023-01-13T19:33:11.227Z,11.32
2023-01-13T19:35:38.521Z,10.90
2023-01-13T19:38:05.618Z,11.02
2023-01-13T19:40:35.271Z,11.95
2023-01-13T19:43:21.062Z,12.38
2023-01-13T19:45:51.539Z,10.13
2023-01-13T19:48:19.027Z,11.98
2023-01-13T19:50:48.718Z,12.00
2023-01-13T19:53:18.000Z,11.00
2023-01-13T19:56:02.773Z,10.75
2023-01-13T19:58:30.616Z,10.70
2023-01-13T20:01:11.829Z,10.43
2023-01-13T20:03:39.178Z,10.80
2023-01-13T20:06:12.016Z,10.63
2023-01-13T20:08:39.307Z,11.85
2023-01-13T20:11:22.024Z,11.35
2023-01-13T20:13:49.602Z,12.02
2023-01-13T20:16:16.834Z,14.18
2023-01-13T20:18:46.035Z,23.67
2023-01-13T20:21:15.526Z,12.38
2023-01-13T20:23:46.391Z,13.00
2023-01-13T20:26:13.732Z,11.65
2023-01-13T20:28:51.866Z,10.77
2023-01-13T20:33:50.573Z,10.88
2023-01-13T20:36:31.449Z,9.95
2023-01-13T20:38:59.869Z,10.38
2023-01-13T20:41:49.406Z,10.32
2023-01-13T20:44:16.834Z,11.15
2023-01-13T20:46:54.485Z,10.52
2023-01-13T20:49:25.462Z,10.60
2023-01-13T20:51:54.569Z,11.40
2023-01-13T20:54:22.456Z,8.25
2023-01-13T20:56:49.585Z,10.63
2023-01-13T20:59:18.705Z,11.00
2023-01-13T21:01:46.337Z,9.75
2023-01-13T21:04:13.709Z,9.68
2023-01-13T21:06:42.747Z,10.07
2023-01-13T21:09:10.156Z,9.35
2023-01-13T21:11:56.486Z,8.40
2023-01-13T21:14:44.937Z,7.57
2023-01-13T21:17:33.379Z,10.60
2023-01-13T21:20:24.376Z,12.05
2023-01-13T21:22:54.742Z,8.10
2023-01-13T21:25:22.457Z,8.18
2023-01-13T21:27:52.957Z,12.90
2023-01-13T21:30:20.870Z,9.63
2023-01-13T21:32:51.042Z,8.82
2023-01-13T21:35:19.430Z,9.23
2023-01-13T21:37:49.385Z,9.30
2023-01-13T21:40:16.798Z,9.32
2023-01-13T21:43:30.126Z,8.60
2023-01-13T21:46:16.713Z,9.73
2023-01-13T21:48:51.557Z,9.98
2023-01-13T21:51:24.652Z,8.63
2023-01-13T21:53:52.680Z,9.18
2023-01-13T21:56:24.055Z,10.02
2023-01-13T21:58:59.948Z,9.63
2023-01-13T22:01:28.717Z,10.52
2023-01-13T22:04:15.611Z,9.82
2023-01-13T22:06:43.394Z,9.95
2023-01-13T22:09:11.133Z,9.27
2023-01-13T22:11:38.930Z,10.15
2023-01-13T22:14:09.575Z,10.27
2023-01-13T22:16:49.905Z,10.85
2023-01-13T22:19:21.220Z,13.00
2023-01-13T22:21:52.109Z,10.32
2023-01-13T22:24:19.529Z,11.15
2023-01-13T22:26:55.517Z,11.40
2023-01-13T22:29:24.601Z,11.18
2023-01-13T22:31:53.648Z,11.63
2023-01-13T22:34:21.317Z,11.00
2023-01-13T22:36:57.929Z,12.13
2023-01-13T22:39:28.424Z,12.30
2023-01-13T22:42:03.090Z,10.25
2023-01-13T22:44:32.704Z,9.68
2023-01-13T22:47:09.784Z,10.88
2023-01-13T22:49:37.286Z,9.52
2023-01-13T22:52:04.949Z,10.90
2023-01-13T22:54:36.756Z,10.82
2023-01-13T22:57:04.062Z,10.02
2023-01-13T22:59:32.239Z,10.60
2023-01-13T23:02:06.844Z,11.55
2023-01-13T23:04:40.080Z,13.75
2023-01-13T23:07:07.895Z,12.23
2023-01-13T23:09:35.507Z,11.60
2023-01-13T23:12:12.632Z,11.30
2023-01-13T23:14:40.458Z,9.35
2023-01-13T23:17:07.697Z,9.73
2023-01-13T23:19:42.767Z,9.45
2023-01-13T23:22:10.405Z,9.68
2023-01-13T23:24:37.633Z,8.48
2023-01-13T23:27:05.260Z,9.63
2023-01-13T23:29:32.904Z,9.60
2023-01-13T23:32:00.280Z,9.93
2023-01-13T23:34:30.282Z,9.93
2023-01-13T23:36:57.706Z,10.48
2023-01-13T23:39:25.506Z,10.48
2023-01-13T23:41:53.189Z,10.25
2023-01-13T23:44:20.534Z,9.73
2023-01-13T23:46:49.886Z,10.18
2023-01-13T23:49:17.493Z,9.75
2023-01-13T23:51:49.941Z,8.10
2023-01-13T23:54:17.918Z,9.73
2023-01-13T23:56:45.784Z,10.95
2023-01-13T23:59:15.316Z,9.70
